Time;durP1;ratioP1;P1;durP2;ratioP2;P2;SDS_P1;SDS_P2;PMS_P1;PMS_P2;Temp;Humidity;BMP_temperature;BMP_pressure;BME280_temperature;BME280_humidity;BME280_pressure;Samples;Min_cycle;Max_cycle;Signal;HPM_P1;HPM_P2
2022/01/29 00:01:58;;;;;;;;;14.00;13.25;;;;;8.57;67.04;103229.34;6285954;22;45426;-88
2022/01/29 00:04:24;;;;;;;;;18.25;15.75;;;;;8.71;66.84;103252.69;6285833;22;45191;-88
2022/01/29 00:06:49;;;;;;;;;19.75;17.50;;;;;8.64;66.96;103232.25;6289552;22;45549;-87
2022/01/29 00:09:15;;;;;;;;;16.25;13.50;;;;;8.70;66.93;103241.28;6289815;22;46934;-87
2022/01/29 00:11:44;;;;;;;;;15.25;13.50;;;;;8.63;67.05;103233.97;6315188;22;45085;-88
2022/01/29 00:14:12;;;;;;;;;12.25;11.25;;;;;8.63;66.90;103220.84;6314470;22;45330;-87
2022/01/29 00:16:40;;;;;;;;;16.75;15.50;;;;;8.72;66.83;103246.63;6287259;22;44719;-89
2022/01/29 00:19:08;;;;;;;;;16.00;12.50;;;;;8.69;66.98;103233.38;6290343;22;47100;-88
2022/01/29 00:21:36;;;;;;;;;14.25;13.75;;;;;8.64;67.15;103211.25;6289547;22;45362;-86
2022/01/29 00:24:04;;;;;;;;;19.25;16.50;;;;;8.65;67.09;103220.91;6288863;22;45358;-88
2022/01/29 00:26:32;;;;;;;;;18.50;17.25;;;;;8.67;67.09;103217.53;6291656;22;45202;-88
2022/01/29 00:28:58;;;;;;;;;14.75;12.75;;;;;8.61;67.43;103207.66;6299501;22;47366;-86
2022/01/29 00:31:26;;;;;;;;;15.75;14.75;;;;;8.55;66.86;103203.84;6307175;22;44649;-87
2022/01/29 00:33:54;;;;;;;;;14.50;12.75;;;;;8.51;66.98;103188.81;6306701;22;44647;-87
2022/01/29 00:36:22;;;;;;;;;19.25;16.00;;;;;8.49;67.08;103187.81;6306875;22;44779;-88
2022/01/29 00:38:49;;;;;;;;;13.00;12.00;;;;;8.57;67.44;103202.19;6306934;22;46953;-87
2022/01/29 00:41:15;;;;;;;;;13.25;13.25;;;;;8.46;67.29;103192.94;6333397;22;44664;-88
2022/01/29 00:43:40;;;;;;;;;16.75;13.00;;;;;8.51;67.33;103202.81;6303150;22;44893;-87
2022/01/29 00:46:05;;;;;;;;;14.00;14.00;;;;;8.52;67.32;103209.84;6304978;22;45730;-88
2022/01/29 00:48:33;;;;;;;;;15.25;14.75;;;;;8.42;67.37;103191.00;6333129;22;45442;-87
2022/01/29 00:51:00;;;;;;;;;15.00;13.50;;;;;8.45;67.41;103201.66;6305971;22;44871;-88
2022/01/29 00:53:26;;;;;;;;;22.75;15.75;;;;;8.39;67.55;103192.69;6330554;22;44766;-88
2022/01/29 00:55:51;;;;;;;;;14.25;13.25;;;;;8.37;67.90;103181.19;6331329;22;44643;-88
2022/01/29 00:58:17;;;;;;;;;10.50;10.50;;;;;8.39;67.44;103170.75;6330523;22;45784;-87
2022/01/29 01:00:51;;;;;;;;;15.00;14.00;;;;;8.51;67.81;103187.06;6329835;22;45438;-88
2022/01/29 01:03:20;;;;;;;;;15.00;12.50;;;;;8.46;68.00;103182.44;6329786;22;44585;-87
2022/01/29 01:05:47;;;;;;;;;16.50;13.00;;;;;8.53;67.99;103187.16;6327451;22;45365;-89
2022/01/29 01:08:15;;;;;;;;;12.25;10.25;;;;;8.41;67.85;103162.97;6317387;22;45191;-87
2022/01/29 01:10:43;;;;;;;;;19.75;14.75;;;;;8.55;68.02;103178.50;6284614;22;45203;-88
2022/01/29 01:13:11;;;;;;;;;17.25;15.25;;;;;8.53;68.33;103169.66;6284397;22;45374;-87
2022/01/29 01:15:39;;;;;;;;;17.50;14.50;;;;;8.50;68.18;103168.59;6285289;22;45457;-88
2022/01/29 01:18:07;;;;;;;;;12.75;12.75;;;;;8.59;68.37;103180.41;6312289;22;45316;-86
2022/01/29 01:20:35;;;;;;;;;14.00;13.00;;;;;8.48;68.38;103160.69;6283827;22;45602;-87
2022/01/29 01:23:00;;;;;;;;;12.25;10.50;;;;;8.54;68.72;103170.56;6283616;22;45399;-89
2022/01/29 01:25:25;;;;;;;;;13.00;13.00;;;;;8.56;68.67;103175.03;6310489;22;45261;-88
2022/01/29 01:27:52;;;;;;;;;18.25;15.25;;;;;8.45;69.22;103143.91;6309812;22;47264;-89
2022/01/29 01:30:20;;;;;;;;;11.25;8.75;;;;;8.53;68.98;103161.78;6283829;22;45202;-88
2022/01/29 01:32:51;;;;;;;;;15.50;15.25;;;;;8.38;69.12;103138.34;6284541;22;45232;-88
2022/01/29 01:35:28;;;;;;;;;14.25;13.25;;;;;8.45;69.23;103155.31;6312772;22;45358;-87
2022/01/29 01:37:59;;;;;;;;;17.75;14.00;;;;;8.47;69.36;103157.97;6283591;22;47107;-88
2022/01/29 01:40:28;;;;;;;;;17.75;15.25;;;;;8.36;69.90;103149.59;6283940;22;45906;-88
2022/01/29 01:42:59;;;;;;;;;16.25;13.75;;;;;8.44;70.12;103164.00;6313283;22;45258;-88
2022/01/29 01:45:25;;;;;;;;;15.50;14.00;;;;;8.33;70.17;103141.59;6313439;22;45276;-88
2022/01/29 01:47:53;;;;;;;;;16.25;13.00;;;;;8.38;70.38;103145.31;6284769;22;46928;-88
2022/01/29 01:50:20;;;;;;;;;16.75;15.00;;;;;8.47;70.31;103161.50;6285010;22;45157;-88
2022/01/29 01:52:51;;;;;;;;;14.00;13.00;;;;;8.31;70.45;103135.38;6312056;22;45164;-88
2022/01/29 01:55:18;;;;;;;;;20.00;15.50;;;;;8.35;70.32;103143.47;6312324;22;45402;-88
2022/01/29 01:57:44;;;;;;;;;14.75;11.25;;;;;8.46;70.63;103161.44;6283937;22;46262;-87
2022/01/29 02:00:13;;;;;;;;;18.50;15.50;;;;;8.36;70.64;103153.13;6311970;22;45205;-88
2022/01/29 02:02:41;;;;;;;;;15.00;14.00;;;;;8.43;71.11;103162.22;6285121;22;45275;-87
2022/01/29 02:05:10;;;;;;;;;17.25;15.00;;;;;8.34;71.39;103144.31;6285479;22;45409;-88
2022/01/29 02:07:36;;;;;;;;;16.00;15.25;;;;;8.46;71.04;103151.84;6284764;22;47125;-87
2022/01/29 02:10:07;;;;;;;;;14.25;13.50;;;;;8.40;71.10;103143.69;6312448;22;45231;-88
2022/01/29 02:12:45;;;;;;;;;18.00;14.00;;;;;8.43;71.29;103145.56;6284076;22;45337;-87
2022/01/29 02:15:11;;;;;;;;;15.00;14.75;;;;;8.41;71.39;103139.34;6283700;22;45448;-88
2022/01/29 02:17:37;;;;;;;;;18.75;15.50;;;;;8.43;71.26;103142.94;6284629;22;48191;-88
2022/01/29 02:20:05;;;;;;;;;11.25;10.00;;;;;8.43;71.42;103149.09;6283020;22;45400;-88
2022/01/29 02:22:30;;;;;;;;;19.00;15.50;;;;;8.42;71.68;103141.13;6284873;22;45347;-88
2022/01/29 02:24:58;;;;;;;;;16.75;14.75;;;;;8.41;71.64;103129.75;6284973;22;45401;-88
2022/01/29 02:27:31;;;;;;;;;14.25;13.75;;;;;8.39;71.39;103124.44;6285050;22;46452;-88
2022/01/29 02:29:56;;;;;;;;;13.50;11.25;;;;;8.44;71.34;103128.97;6312492;22;45266;-88
2022/01/29 02:32:22;;;;;;;;;18.00;14.75;;;;;8.36;71.51;103110.22;6285173;22;45457;-88
2022/01/29 02:34:48;;;;;;;;;20.00;17.25;;;;;8.28;71.57;103093.25;6286083;22;45224;-88
2022/01/29 02:37:18;;;;;;;;;15.00;12.50;;;;;8.39;71.77;103102.53;6288460;22;46812;-87
2022/01/29 02:39:46;;;;;;;;;14.75;12.75;;;;;8.40;72.00;103096.47;6316072;22;45400;-86
2022/01/29 02:42:11;;;;;;;;;16.50;13.75;;;;;8.35;72.22;103090.06;6289592;22;45416;-86
2022/01/29 02:44:37;;;;;;;;;15.25;13.75;;;;;8.22;72.25;103067.66;6332000;22;44696;-86
2022/01/29 02:47:27;;;;;;;;;17.00;13.75;;;;;8.32;72.36;103085.59;6330254;22;46931;-87
2022/01/29 02:49:55;;;;;;;;;10.75;10.00;;;;;8.33;72.28;103079.50;6329725;22;45317;-87
2022/01/29 02:52:23;;;;;;;;;15.00;12.25;;;;;8.30;72.46;103067.97;6330261;22;44782;-88
2022/01/29 02:54:48;;;;;;;;;19.50;15.00;;;;;8.42;72.29;103086.00;6303975;22;45441;-88
2022/01/29 02:57:14;;;;;;;;;14.75;13.50;;;;;8.38;72.67;103074.47;6302536;22;47114;-87
2022/01/29 02:59:55;;;;;;;;;;;;;;;;;;;;;
2022/01/29 03:02:20;;;;;;;;;13.75;12.50;;;;;8.34;72.77;103056.78;6328024;22;67995;-87
2022/01/29 03:04:48;;;;;;;;;16.75;16.50;;;;;8.42;72.84;103054.50;6287139;22;45318;-87
2022/01/29 03:07:18;;;;;;;;;15.00;13.75;;;;;8.30;72.86;103045.25;6318731;22;46276;-86
2022/01/29 03:09:48;;;;;;;;;14.25;12.00;;;;;8.28;73.01;103038.16;6291277;22;45327;-87
2022/01/29 03:12:18;;;;;;;;;15.00;14.75;;;;;8.44;73.15;103056.38;6285133;22;45182;-88
2022/01/29 03:14:44;;;;;;;;;13.75;13.00;;;;;8.28;73.05;103023.28;6285320;22;45384;-88
2022/01/29 03:17:12;;;;;;;;;15.50;11.50;;;;;8.34;72.96;103030.53;6284618;22;47022;-88
2022/01/29 03:19:42;;;;;;;;;16.25;14.50;;;;;8.43;73.11;103046.72;6284604;22;45250;-88
2022/01/29 03:22:08;;;;;;;;;14.00;13.00;;;;;8.45;73.27;103044.16;6283967;22;45333;-87
2022/01/29 03:24:35;;;;;;;;;13.00;10.00;;;;;8.44;73.28;103037.09;6312126;22;45215;-87
2022/01/29 03:27:03;;;;;;;;;9.00;9.00;;;;;8.51;73.33;103045.31;6284063;22;47230;-88
2022/01/29 03:29:28;;;;;;;;;11.75;9.75;;;;;8.47;73.25;103043.38;6283906;22;45152;-89
2022/01/29 03:31:57;;;;;;;;;16.25;11.50;;;;;8.42;73.15;103023.94;6283859;22;45168;-88
2022/01/29 03:34:31;;;;;;;;;15.50;11.25;;;;;8.56;73.36;103046.41;6283757;22;45392;-88
2022/01/29 03:37:01;;;;;;;;;11.75;10.25;;;;;8.45;73.32;103026.69;6282804;22;47288;-88
2022/01/29 03:39:36;;;;;;;;;13.75;12.75;;;;;8.58;73.53;103051.69;6282436;22;45684;-88
2022/01/29 03:42:06;;;;;;;;;12.00;9.25;;;;;8.49;73.39;103038.19;6282988;22;45313;-88
2022/01/29 03:44:32;;;;;;;;;13.75;10.00;;;;;8.50;73.40;103042.59;6310805;22;45473;-88
2022/01/29 03:47:00;;;;;;;;;15.00;13.50;;;;;8.56;73.69;103046.41;6283294;22;47050;-87
2022/01/29 03:49:28;;;;;;;;;21.25;15.75;;;;;8.53;73.71;103040.13;6310359;22;45286;-87
2022/01/29 03:51:56;;;;;;;;;13.75;9.75;;;;;8.47;73.55;103027.63;6310921;22;45270;-88
2022/01/29 03:54:21;;;;;;;;;15.50;12.25;;;;;8.45;73.58;103031.94;6284398;22;45472;-87
2022/01/29 03:56:47;;;;;;;;;16.00;14.50;;;;;8.43;73.60;103032.69;6313044;22;45556;-88
2022/01/29 03:59:12;;;;;;;;;14.25;12.25;;;;;8.46;73.33;103025.84;6285041;22;45294;-88
2022/01/29 04:01:42;;;;;;;;;16.25;13.50;;;;;8.51;73.78;103036.53;6285934;22;45431;-87
2022/01/29 04:04:10;;;;;;;;;15.50;14.25;;;;;8.56;73.62;103037.63;6286029;22;44782;-86
2022/01/29 04:06:40;;;;;;;;;10.50;10.00;;;;;8.58;73.93;103046.44;6285975;22;48542;-86
2022/01/29 04:09:10;;;;;;;;;15.75;14.25;;;;;8.44;73.60;103027.50;6286472;22;45227;-87
2022/01/29 04:11:37;;;;;;;;;15.75;14.00;;;;;8.60;73.71;103042.16;6289582;22;45180;-88
2022/01/29 04:14:03;;;;;;;;;15.75;14.50;;;;;8.49;73.91;103022.44;6322533;22;44874;-87
2022/01/29 04:16:39;;;;;;;;;14.75;12.75;;;;;8.58;73.70;103034.25;6294020;22;47225;-86
2022/01/29 04:19:04;;;;;;;;;18.75;15.50;;;;;8.55;73.79;103027.94;6320911;22;45974;-86
2022/01/29 04:21:30;;;;;;;;;17.00;14.00;;;;;8.50;73.65;103012.03;6286306;22;45232;-86
2022/01/29 04:23:55;;;;;;;;;16.50;14.50;;;;;8.65;73.58;103038.00;6317009;22;45380;-88
2022/01/29 04:26:33;;;;;;;;;15.00;14.00;;;;;8.51;73.92;103007.66;6320937;22;45298;-86
2022/01/29 04:29:02;;;;;;;;;13.75;11.50;;;;;8.56;73.91;103014.88;6292632;22;45183;-86
2022/01/29 04:31:36;;;;;;;;;15.00;15.00;;;;;8.73;73.78;103043.56;6320060;22;45197;-87
2022/01/29 04:34:04;;;;;;;;;14.75;12.25;;;;;8.68;74.03;103030.25;6319775;22;45537;-88
2022/01/29 04:36:32;;;;;;;;;15.50;14.75;;;;;8.73;73.47;103035.69;6319778;22;45374;-88
2022/01/29 04:38:57;;;;;;;;;12.50;11.50;;;;;8.78;73.80;103042.91;6291609;22;45607;-87
2022/01/29 04:41:25;;;;;;;;;15.00;10.75;;;;;8.81;73.76;103037.78;6317936;22;45221;-87
2022/01/29 04:43:52;;;;;;;;;12.25;10.50;;;;;8.83;74.02;103043.13;6315815;22;45109;-88
2022/01/29 04:46:25;;;;;;;;;11.50;10.25;;;;;8.72;73.53;103012.91;6284722;22;47103;-89
2022/01/29 04:48:53;;;;;;;;;17.00;14.00;;;;;8.80;73.99;103030.75;6284439;22;45270;-88
2022/01/29 04:51:18;;;;;;;;;11.00;10.00;;;;;8.77;74.04;103022.75;6284408;22;45326;-88
2022/01/29 04:53:44;;;;;;;;;16.25;13.00;;;;;8.76;73.96;103010.44;6311708;22;45365;-88
2022/01/29 04:56:12;;;;;;;;;16.00;11.75;;;;;8.80;74.01;103014.09;6285404;22;47760;-88
2022/01/29 04:58:39;;;;;;;;;14.25;10.00;;;;;8.80;74.08;103011.47;6285444;22;45420;-87
2022/01/29 05:01:05;;;;;;;;;13.75;13.25;;;;;8.87;74.04;103018.75;6284178;22;45265;-88
2022/01/29 05:03:32;;;;;;;;;14.75;11.25;;;;;8.80;74.12;103016.72;6285309;22;45444;-87
2022/01/29 05:05:58;;;;;;;;;15.25;12.25;;;;;8.80;74.16;103019.34;6316167;22;45172;-88
2022/01/29 05:08:23;;;;;;;;;16.75;12.50;;;;;8.82;74.01;103034.34;6287165;22;44676;-88
2022/01/29 05:10:49;;;;;;;;;5.25;4.50;;;;;8.85;74.07;103025.69;6313616;22;45242;-87
2022/01/29 05:13:19;;;;;;;;;12.25;11.50;;;;;8.82;74.07;103015.97;6312539;22;45543;-88
2022/01/29 05:27:02;;;;;;;;;11.50;11.50;;;;;8.87;74.58;103021.38;6313576;22;45624;-87
2022/01/29 05:29:33;;;;;;;;;17.00;13.00;;;;;8.96;74.52;103034.88;6283925;22;45310;-88
2022/01/29 05:32:00;;;;;;;;;13.75;13.25;;;;;8.97;74.22;103031.41;6283514;22;45345;-88
2022/01/29 05:34:26;;;;;;;;;11.75;10.75;;;;;8.88;74.44;103011.78;6284234;22;45488;-89
2022/01/29 05:36:53;;;;;;;;;17.50;14.00;;;;;8.94;74.27;103019.91;6283568;22;47098;-87
2022/01/29 05:39:20;;;;;;;;;14.00;13.50;;;;;8.94;74.55;103015.53;6284286;22;45523;-89
2022/01/29 05:41:50;;;;;;;;;12.50;11.75;;;;;8.89;74.63;103003.06;6311891;22;45093;-87
2022/01/29 05:44:16;;;;;;;;;18.75;14.50;;;;;8.99;74.49;103010.47;6312078;22;45335;-87
2022/01/29 05:46:43;;;;;;;;;14.75;12.75;;;;;8.98;74.70;103006.03;6283925;22;47209;-87
2022/01/29 05:49:13;;;;;;;;;15.75;10.00;;;;;9.02;74.71;103008.84;6284049;22;45223;-88
2022/01/29 05:51:41;;;;;;;;;14.50;12.25;;;;;8.98;74.44;103001.69;6284060;22;45373;-88
2022/01/29 05:54:07;;;;;;;;;16.25;12.75;;;;;9.01;74.50;103014.06;6309542;22;45366;-88
2022/01/29 05:56:37;;;;;;;;;16.75;14.75;;;;;8.99;74.65;102995.59;6312130;22;45606;-87
2022/01/29 05:59:03;;;;;;;;;14.75;12.25;;;;;8.98;74.70;102998.16;6312881;22;45229;-87
2022/01/29 06:01:33;;;;;;;;;14.50;14.50;;;;;8.99;75.08;103003.47;6310718;22;45393;-88
2022/01/29 06:04:01;;;;;;;;;15.25;13.25;;;;;8.90;74.84;102987.38;6312783;22;45223;-88
2022/01/29 06:06:26;;;;;;;;;11.25;9.75;;;;;8.97;75.30;102999.00;6311191;22;48133;-88
2022/01/29 06:08:52;;;;;;;;;15.25;13.25;;;;;8.92;74.88;102983.06;6283545;22;45145;-89
2022/01/29 06:11:21;;;;;;;;;10.25;10.25;;;;;9.01;74.95;102999.19;6284810;22;45392;-88
2022/01/29 06:13:48;;;;;;;;;18.25;15.25;;;;;8.95;74.80;102987.53;6311476;22;45340;-87
2022/01/29 06:16:18;;;;;;;;;11.25;9.25;;;;;8.99;74.62;102990.34;6311846;22;45411;-88
2022/01/29 06:18:44;;;;;;;;;14.25;12.50;;;;;8.95;74.97;102987.53;6311903;22;45403;-88
2022/01/29 06:21:12;;;;;;;;;10.50;9.25;;;;;9.05;75.05;103000.19;6284092;22;45356;-89
2022/01/29 06:23:38;;;;;;;;;16.25;13.25;;;;;9.03;74.76;102999.22;6311714;22;45307;-87
2022/01/29 06:26:06;;;;;;;;;14.00;12.25;;;;;9.00;74.68;102993.88;6283749;22;48151;-87
2022/01/29 06:28:33;;;;;;;;;14.00;10.50;;;;;9.10;74.84;103001.28;6284358;22;45239;-88
2022/01/29 06:30:59;;;;;;;;;12.00;11.50;;;;;8.95;74.76;102980.53;6283017;22;45338;-87
2022/01/29 06:33:25;;;;;;;;;14.75;14.50;;;;;9.14;74.86;103018.97;6282301;22;45622;-88
2022/01/29 06:35:55;;;;;;;;;12.00;10.75;;;;;9.06;74.86;103001.97;6282213;22;45956;-88
2022/01/29 06:38:21;;;;;;;;;11.50;11.25;;;;;9.08;75.15;102996.78;6282328;22;45262;-89
2022/01/29 06:40:46;;;;;;;;;9.75;9.75;;;;;9.09;75.09;102990.69;6283440;22;45247;-88
2022/01/29 06:43:12;;;;;;;;;12.00;10.25;;;;;9.10;75.03;102988.13;6311186;22;45183;-88
2022/01/29 06:45:41;;;;;;;;;9.75;9.75;;;;;9.07;75.11;102982.78;6311188;22;46300;-87
2022/01/29 06:48:07;;;;;;;;;11.75;11.50;;;;;9.08;75.13;102981.91;6309790;22;45342;-88
2022/01/29 06:50:37;;;;;;;;;12.75;11.50;;;;;9.09;75.08;102983.72;6282766;22;45438;-88
2022/01/29 06:53:04;;;;;;;;;13.50;12.25;;;;;9.11;75.01;102978.50;6281219;22;45409;-89
2022/01/29 06:55:32;;;;;;;;;9.00;8.25;;;;;9.13;75.17;103001.38;6310728;22;45568;-87
2022/01/29 06:57:58;;;;;;;;;14.75;11.00;;;;;9.08;75.20;102973.16;6282260;22;45506;-88
2022/01/29 07:00:26;;;;;;;;;11.50;10.25;;;;;9.13;75.43;102997.88;6310501;22;45128;-88
2022/01/29 07:02:54;;;;;;;;;14.50;10.75;;;;;9.05;75.18;102980.06;6282124;22;45486;-88
2022/01/29 07:05:19;;;;;;;;;14.50;9.75;;;;;9.14;74.95;103004.91;6281909;22;47133;-88
2022/01/29 07:07:45;;;;;;;;;8.50;8.50;;;;;9.11;75.33;102995.16;6309621;22;44755;-89
2022/01/29 07:10:10;;;;;;;;;10.50;7.50;;;;;9.11;75.32;102978.50;6282549;22;45187;-89
2022/01/29 07:12:37;;;;;;;;;14.00;12.00;;;;;9.23;75.18;103000.03;6307797;22;45505;-89
2022/01/29 07:15:04;;;;;;;;;8.25;7.25;;;;;9.23;75.19;102998.28;6282345;22;47348;-88
2022/01/29 07:17:29;;;;;;;;;8.00;8.00;;;;;9.13;74.89;102983.00;6282029;22;45694;-88
2022/01/29 07:19:55;;;;;;;;;10.25;9.00;;;;;9.24;75.16;103001.78;6282343;22;45635;-88
2022/01/29 07:22:23;;;;;;;;;7.50;7.50;;;;;9.14;74.92;102969.03;6309792;22;45342;-89
2022/01/29 07:24:53;;;;;;;;;9.50;7.75;;;;;9.24;75.25;102975.50;6310134;22;46005;-89
2022/01/29 07:27:21;;;;;;;;;8.00;6.25;;;;;9.25;75.29;102978.22;6310880;22;45158;-88
2022/01/29 07:29:49;;;;;;;;;11.00;8.00;;;;;9.19;75.06;102963.94;6283483;22;45176;-88
2022/01/29 07:32:15;;;;;;;;;7.00;7.00;;;;;9.25;75.03;102978.22;6282802;22;45386;-88
2022/01/29 07:34:43;;;;;;;;;9.00;8.00;;;;;9.27;75.05;102978.25;6283014;22;47175;-88
2022/01/29 07:37:08;;;;;;;;;9.25;8.00;;;;;9.38;74.57;102994.44;6311597;22;45184;-88
2022/01/29 07:39:36;;;;;;;;;8.00;6.50;;;;;9.29;74.90;102973.97;6311772;22;45101;-89
2022/01/29 07:42:02;;;;;;;;;6.75;6.75;;;;;9.35;74.87;102987.31;6283052;22;46015;-88
2022/01/29 07:44:27;;;;;;;;;9.25;7.00;;;;;9.38;74.75;102984.84;6311437;22;45251;-89
2022/01/29 07:46:58;;;;;;;;;7.00;5.00;;;;;9.38;74.91;102992.72;6283114;22;45277;-88
2022/01/29 07:49:23;;;;;;;;;4.00;4.00;;;;;9.45;75.07;103002.59;6283405;22;45220;-88
2022/01/29 07:51:51;;;;;;;;;8.00;6.75;;;;;9.43;75.23;102992.88;6282601;22;45509;-88
2022/01/29 07:54:16;;;;;;;;;5.50;5.50;;;;;9.34;75.06;102974.13;6282835;22;46876;-88
2022/01/29 07:56:43;;;;;;;;;4.00;3.50;;;;;9.41;75.29;102984.94;6282628;22;45207;-88
2022/01/29 07:59:09;;;;;;;;;7.00;7.00;;;;;9.39;75.15;102985.72;6311248;22;45423;-88
2022/01/29 08:01:34;;;;;;;;;4.25;4.00;;;;;9.43;74.96;102977.97;6282657;22;45331;-88
2022/01/29 08:04:02;;;;;;;;;6.00;6.00;;;;;9.42;75.03;102973.56;6282195;22;47842;-88
2022/01/29 08:06:33;;;;;;;;;8.75;6.50;;;;;9.49;74.83;102979.97;6282655;22;45191;-88
2022/01/29 08:08:58;;;;;;;;;4.00;4.00;;;;;9.45;75.18;102967.53;6282572;22;45433;-88
2022/01/29 08:11:32;;;;;;;;;8.00;6.25;;;;;9.54;75.19;102974.88;6310764;22;45239;-89
2022/01/29 08:13:57;;;;;;;;;5.50;5.50;;;;;9.58;75.14;102982.03;6283685;22;47463;-88
2022/01/29 08:16:28;;;;;;;;;7.50;4.75;;;;;9.53;75.59;102967.81;6284769;22;45171;-88
2022/01/29 08:18:53;;;;;;;;;5.50;4.00;;;;;9.57;75.24;102972.34;6312358;22;45118;-89
2022/01/29 08:21:19;;;;;;;;;4.25;4.25;;;;;9.50;75.61;102963.34;6282473;22;45511;-88
2022/01/29 08:23:45;;;;;;;;;7.75;5.75;;;;;9.67;75.59;102985.00;6311343;22;45175;-89
2022/01/29 08:26:11;;;;;;;;;7.25;5.00;;;;;9.53;75.57;102952.06;6282382;22;45165;-89
2022/01/29 08:28:37;;;;;;;;;5.00;5.00;;;;;9.55;75.63;102961.78;6282441;22;45234;-88
2022/01/29 08:31:05;;;;;;;;;6.00;5.75;;;;;9.63;75.75;102967.31;6310535;22;45458;-88
2022/01/29 08:33:31;;;;;;;;;8.00;5.75;;;;;9.57;75.81;102967.06;6312343;22;45334;-88
2022/01/29 08:35:58;;;;;;;;;3.50;3.50;;;;;9.67;75.55;102980.63;6317385;22;45274;-88
2022/01/29 08:38:34;;;;;;;;;5.00;5.00;;;;;9.69;75.62;102989.47;6288634;22;44609;-88
2022/01/29 08:41:00;;;;;;;;;5.25;5.25;;;;;9.71;75.49;102979.91;6291053;22;44791;-87
2022/01/29 08:43:28;;;;;;;;;3.75;3.75;;;;;9.69;75.67;102972.78;6288412;22;47081;-89
2022/01/29 08:45:54;;;;;;;;;4.75;4.00;;;;;9.63;75.42;102944.53;6282411;22;45383;-89
2022/01/29 08:48:22;;;;;;;;;8.00;7.75;;;;;9.64;75.87;102962.09;6282339;22;45485;-88
2022/01/29 08:50:48;;;;;;;;;9.00;8.25;;;;;9.71;75.55;102972.00;6283292;22;45408;-88
2022/01/29 08:53:15;;;;;;;;;5.75;5.75;;;;;9.80;75.79;102978.44;6309262;22;45212;-89
2022/01/29 08:55:41;;;;;;;;;3.25;2.50;;;;;9.81;75.71;102981.13;6282481;22;45132;-88
2022/01/29 08:58:12;;;;;;;;;8.00;4.75;;;;;9.82;75.81;102964.50;6282002;22;45193;-89
2022/01/29 09:00:44;;;;;;;;;5.00;4.00;;;;;9.86;75.82;102974.31;6282092;22;45381;-88
2022/01/29 09:03:11;;;;;;;;;4.75;4.75;;;;;9.84;75.81;102967.19;6281258;22;47206;-88
2022/01/29 09:05:37;;;;;;;;;6.00;3.75;;;;;9.86;75.63;102976.94;6282977;22;45279;-89
2022/01/29 09:08:04;;;;;;;;;7.00;4.00;;;;;9.87;75.65;102962.03;6311288;22;45364;-88
2022/01/29 09:10:30;;;;;;;;;4.00;4.00;;;;;9.97;75.63;102974.69;6286087;22;45757;-90
2022/01/29 09:12:56;;;;;;;;;4.50;4.50;;;;;9.88;75.62;102948.91;6281362;22;47367;-88
2022/01/29 09:15:22;;;;;;;;;3.00;2.00;;;;;10.04;75.57;102974.03;6282380;22;45207;-88
2022/01/29 09:17:50;;;;;;;;;6.50;5.00;;;;;10.06;75.46;102968.84;6309920;22;45185;-88
2022/01/29 09:20:18;;;;;;;;;6.75;4.00;;;;;10.08;75.38;102960.16;6310228;22;45251;-89
2022/01/29 09:22:44;;;;;;;;;4.75;4.00;;;;;10.21;75.15;102971.06;6282485;22;47004;-87
2022/01/29 09:25:10;;;;;;;;;3.25;3.25;;;;;10.23;74.79;102972.03;6284418;22;45580;-89
2022/01/29 09:27:39;;;;;;;;;4.00;2.50;;;;;10.21;74.94;102956.19;6284674;22;45294;-89
2022/01/29 09:30:05;;;;;;;;;4.50;3.25;;;;;10.29;74.88;102957.38;6284698;22;45381;-88
2022/01/29 09:32:34;;;;;;;;;4.25;4.25;;;;;10.37;74.60;102958.53;6283932;22;46597;-90
2022/01/29 09:35:03;;;;;;;;;3.75;3.75;;;;;10.36;74.71;102951.44;6312176;22;45201;-90
2022/01/29 09:37:30;;;;;;;;;3.50;3.00;;;;;10.37;74.23;102961.16;6312579;22;45323;-89
2022/01/29 09:39:58;;;;;;;;;3.00;3.00;;;;;10.41;74.44;102959.50;6283107;22;45371;-86
2022/01/29 09:42:24;;;;;;;;;1.50;1.50;;;;;10.37;74.52;102957.59;6285298;22;48409;-88
2022/01/29 09:44:52;;;;;;;;;7.00;4.75;;;;;10.36;74.58;102959.34;6283109;22;45601;-89
2022/01/29 09:47:23;;;;;;;;;5.75;4.00;;;;;10.37;74.36;102957.59;6310998;22;45188;-88
2022/01/29 09:49:54;;;;;;;;;2.75;2.50;;;;;10.31;74.34;102950.41;6311341;22;45178;-90
2022/01/29 09:52:25;;;;;;;;;6.25;4.75;;;;;10.38;74.69;102960.31;6284856;22;46815;-88
2022/01/29 09:54:50;;;;;;;;;4.00;4.00;;;;;10.25;74.35;102937.00;6287622;22;45196;-89
2022/01/29 09:57:16;;;;;;;;;3.00;3.00;;;;;10.33;74.49;102956.63;6312557;22;45112;-88
2022/01/29 09:59:42;;;;;;;;;3.67;3.00;;;;;10.31;74.92;102957.41;6284628;22;45146;-88
2022/01/29 10:02:18;;;;;;;;;3.00;3.00;;;;;10.36;74.56;102976.88;6284366;22;47977;-88
2022/01/29 10:04:55;;;;;;;;;6.00;4.75;;;;;10.41;74.84;102970.03;6283738;22;45395;-86
2022/01/29 10:07:29;;;;;;;;;7.00;6.50;;;;;10.42;74.95;102982.34;6284411;22;45262;-88
2022/01/29 10:09:56;;;;;;;;;4.00;3.00;;;;;10.45;74.89;102978.91;6310819;22;45306;-88
2022/01/29 10:12:30;;;;;;;;;3.00;3.00;;;;;10.44;74.48;102970.13;6282778;22;46272;-89
2022/01/29 10:15:03;;;;;;;;;3.75;3.75;;;;;10.37;74.75;102954.97;6310250;22;45263;-89
2022/01/29 10:17:49;;;;;;;;;5.75;3.00;;;;;10.53;74.84;102973.09;6282095;22;45408;-89
2022/01/29 10:20:19;;;;;;;;;4.67;4.00;;;;;10.58;74.71;102976.78;6284183;22;45497;-88
2022/01/29 10:22:49;;;;;;;;;4.50;4.50;;;;;10.62;74.66;102971.59;6281237;22;46146;-88
2022/01/29 10:25:20;;;;;;;;;4.50;3.75;;;;;10.68;74.18;102975.31;6307937;22;45286;-89
2022/01/29 10:28:10;;;;;;;;;3.00;3.00;;;;;10.63;74.37;102955.81;6310576;22;45131;-89
2022/01/29 10:30:49;;;;;;;;;4.50;2.00;;;;;10.71;74.21;102966.59;6281497;22;45408;-89
2022/01/29 10:33:26;;;;;;;;;4.00;4.00;;;;;10.72;74.23;102964.03;6309302;22;45714;-89
2022/01/29 10:35:53;;;;;;;;;1.00;1.00;;;;;10.88;74.18;102970.69;6309760;22;45465;-89
2022/01/29 10:38:26;;;;;;;;;3.00;3.00;;;;;10.84;73.95;102952.97;6281241;22;45377;-89
2022/01/29 10:41:10;;;;;;;;;5.33;3.67;;;;;10.96;74.04;102965.63;6310004;22;45194;-90
2022/01/29 10:43:58;;;;;;;;;3.33;1.67;;;;;10.91;73.74;102957.59;6282166;22;47150;-89
2022/01/29 10:46:29;;;;;;;;;1.25;1.25;;;;;10.94;73.69;102951.50;6281743;22;45270;-89
2022/01/29 10:48:58;;;;;;;;;3.00;3.00;;;;;10.96;73.85;102952.44;6282782;22;45192;-90
2022/01/29 10:51:26;;;;;;;;;3.00;3.00;;;;;10.99;73.61;102979.78;6311448;22;45357;-89
2022/01/29 10:54:23;;;;;;;;;3.00;3.00;;;;;10.92;73.75;102959.38;6308853;22;46121;-88
2022/01/29 10:57:00;;;;;;;;;3.50;2.00;;;;;11.00;73.72;102973.66;6272471;22;45188;-88
2022/01/29 10:59:31;;;;;;;;;2.00;2.00;;;;;10.90;73.63;102950.50;6284337;22;45133;-88
2022/01/29 11:02:07;;;;;;;;;3.25;3.25;;;;;10.91;73.50;102962.84;6283748;22;45378;-87
2022/01/29 11:04:37;;;;;;;;;2.67;2.00;;;;;10.95;73.35;102963.84;6289430;22;47091;-88
2022/01/29 11:07:14;;;;;;;;;2.00;2.00;;;;;11.03;73.53;102978.13;6284322;22;45179;-88
2022/01/29 11:09:45;;;;;;;;;4.67;4.67;;;;;11.01;73.46;102971.91;6283800;22;45468;-87
2022/01/29 11:12:12;;;;;;;;;2.00;1.67;;;;;10.98;73.36;102961.28;6282288;22;45193;-88
2022/01/29 11:14:42;;;;;;;;;1.33;0.67;;;;;11.08;73.66;102973.00;6282923;22;45970;-88
2022/01/29 11:17:10;;;;;;;;;3.33;2.00;;;;;11.03;73.61;102967.59;6282499;22;45463;-87
2022/01/29 11:19:44;;;;;;;;;1.67;1.67;;;;;11.06;73.55;102959.78;6312727;22;45180;-88
2022/01/29 11:22:10;;;;;;;;;1.00;1.00;;;;;11.06;73.35;102966.78;6283230;22;45374;-90
2022/01/29 11:24:54;;;;;;;;;1.00;1.00;;;;;11.14;73.39;102976.72;6283443;22;46996;-87
2022/01/29 11:27:32;;;;;;;;;1.00;1.00;;;;;11.11;73.62;102970.47;6283136;22;45589;-88
2022/01/29 11:29:59;;;;;;;;;2.00;2.00;;;;;11.19;73.49;102975.09;6282908;22;45114;-89
2022/01/29 11:32:32;;;;;;;;;0.00;0.00;;;;;11.17;73.30;102970.63;6284266;22;45360;-88
2022/01/29 11:35:42;;;;;;;;;1.00;1.00;;;;;11.14;73.43;102955.63;6314354;22;45288;-91
2022/01/29 11:38:12;;;;;;;;;2.67;1.00;;;;;11.15;73.46;102957.44;6191797;22;45245;-90
2022/01/29 11:40:57;;;;;;;;;1.00;1.00;;;;;11.23;73.63;102974.38;6194014;22;45274;-89
2022/01/29 11:43:24;;;;;;;;;2.00;2.00;;;;;11.25;73.50;102971.75;6262702;22;45459;-91